Rms Voerde — V2AD8 — position and weather

sailwx.info

Track history (hours):
 
Tides and Currents Weather Stations Pressure Air Temp Water Temp Dewpoint Dewpoint Depression Visibility Wind Speed Wind Dir Waves Ship Positions

Rms Voerde

Last reported at 2017-Sep-25 03:19 UTC. Time now 2017-Sep-26 07:23 UTC.
Position N 43°43' W 007°28'.

Length 90 m; draft 3.7 m.

Type: Ship. MMSI: 304010905.

Date/timePositionNaut miles runAvg speedWind from/ knotsBaromVisibWave heightAir tempDewpointWater temp
2017-Sep-25 03:19N 43°43' W 007°28'2 5.9
2017-Sep-25 03:00N 43°44' W 007°26'0 0.0
2017-Sep-25 00:07N 43°44' W 007°26'0 0.0
2017-Sep-24 21:28N 43°44' W 007°26'0 0.0
2017-Sep-24 20:52N 43°44' W 007°26'0 0.0
2017-Sep-24 20:26N 43°44' W 007°26'0 0.0
2017-Sep-24 19:59N 43°44' W 007°26'0 0.0
2017-Sep-24 19:23N 43°44' W 007°26'0 0.0
2017-Sep-24 18:59N 43°44' W 007°26'0 0.0
2017-Sep-24 18:20N 43°44' W 007°26'0 0.0
2017-Sep-24 16:35N 43°44' W 007°26'0 0.1
2017-Sep-24 16:23N 43°44' W 007°26'0 0.0
2017-Sep-24 15:56N 43°44' W 007°26'0 0.0
2017-Sep-24 10:26N 43°44' W 007°26'0 0.0
2017-Sep-24 09:47N 43°44' W 007°26'0 0.0
2017-Sep-24 09:29N 43°44' W 007°26'0 0.0
2017-Sep-24 08:56N 43°44' W 007°26'0 0.0
2017-Sep-24 08:29N 43°44' W 007°26'0 0.1
2017-Sep-24 07:53N 43°44' W 007°26'0 0.0
2017-Sep-24 07:29N 43°44' W 007°26'0 0.1
2017-Sep-24 04:04N 43°43' W 007°26'1 4.5
2017-Sep-24 03:57N 43°43' W 007°25'710.0
2017-Sep-24 03:17N 43°44' W 007°15'  
2017-Sep-21 06:48N 48°04' W 005°10'1110.8
2017-Sep-21 05:48N 48°14' W 005°16'9 9.4
2017-Sep-21 04:48N 48°23' W 005°21'19 6.1
2017-Sep-21 01:42N 48°41' W 005°11'2 7.6
2017-Sep-21 01:28N 48°42' W 005°09'4 8.2
2017-Sep-21 00:58N 48°45' W 005°04'5 9.3
2017-Sep-21 00:26N 48°48' W 004°59'77 9.4
2017-Sep-20 16:14N 49°38' W 003°29'3 8.7
2017-Sep-20 15:55N 49°40' W 003°26'4 9.2
2017-Sep-20 15:30N 49°42' W 003°21'5 9.9
2017-Sep-20 15:00N 49°46' W 003°16'1111.1
2017-Sep-20 14:00N 49°53' W 003°03'611.9
2017-Sep-20 13:30N 49°57' W 002°56'612.2
2017-Sep-20 12:59N 49°59' W 002°46'97 9.4
2017-Sep-20 02:37N 50°29' W 000°22'112.0
2017-Sep-20 02:30N 50°30' W 000°20'611.8
2017-Sep-20 02:00N 50°31' W 000°11'611.6
2017-Sep-20 01:30N 50°33' W 000°03'611.2
2017-Sep-20 01:00N 50°34' E 000°06'511.1
2017-Sep-20 00:30N 50°35' E 000°14'510.6
2017-Sep-20 00:00N 50°37' E 000°23'510.0
2017-Sep-19 23:30N 50°38' E 000°30'5 9.4
2017-Sep-19 23:00N 50°40' E 000°37'5 9.3
2017-Sep-19 22:30N 50°43' E 000°43'5 9.0
2017-Sep-19 22:00N 50°45' E 000°49'12 9.1
2017-Sep-19 20:39N 50°53' E 001°04'2 9.8
2017-Sep-19 20:30N 50°54' E 001°06'510.4
2017-Sep-19 20:00N 50°57' E 001°12'611.7
2017-Sep-19 19:30N 51°01' E 001°20'612.9
2017-Sep-19 19:00N 51°05' E 001°28'713.4
2017-Sep-19 18:30N 51°09' E 001°36'612.7
2017-Sep-19 18:00N 51°13' E 001°44'612.1
2017-Sep-19 17:31N 51°18' E 001°49'510.9
2017-Sep-19 17:00N 51°23' E 001°54'510.4
2017-Sep-19 16:30N 51°27' E 001°59'5 9.8
2017-Sep-19 16:00N 51°31' E 002°03'6 9.2
2017-Sep-19 15:20N 51°36' E 002°09'3 9.1
2017-Sep-19 15:00N 51°38' E 002°12'  
2017-Sep-17 00:55N 62°01' E 004°26'410.0
2017-Sep-17 00:29N 62°05' E 004°31'510.1
2017-Sep-17 00:00N 62°09' E 004°35'510.0
2017-Sep-16 23:30N 62°14' E 004°40'5 9.9
2017-Sep-16 23:00N 62°18' E 004°44'298 9.7
2017-Sep-15 16:25N 66°14' E 011°44'4 9.8
2017-Sep-15 15:59N 66°15' E 011°54'510.0
2017-Sep-15 15:30N 66°16' E 012°06'510.2
2017-Sep-15 15:00N 66°17' E 012°18'510.1
2017-Sep-15 14:30N 66°15' E 012°30'4 8.9
2017-Sep-15 14:00N 66°13' E 012°39'5 9.2
2017-Sep-15 13:30N 66°08' E 012°40'5 9.9
2017-Sep-15 13:00N 66°03' E 012°39'3 6.9
2017-Sep-15 12:30N 66°03' E 012°47'4 8.1
2017-Sep-15 12:00N 66°01' E 012°56'4 8.0
2017-Sep-15 11:29N 65°57' E 012°57'510.1
2017-Sep-15 11:00N 65°54' E 013°07'4 6.6
2017-Sep-15 10:27N 65°51' E 013°11'0 0.0
2017-Sep-15 10:00N 65°51' E 013°11'0 0.0
2017-Sep-15 09:30N 65°51' E 013°11'0 0.0
2017-Sep-15 09:00N 65°51' E 013°11'0 0.0
2017-Sep-15 08:30N 65°51' E 013°11'0 0.0
2017-Sep-15 08:00N 65°51' E 013°11'0 0.0
2017-Sep-15 07:27N 65°51' E 013°11'0 0.0
2017-Sep-15 07:00N 65°51' E 013°11'0 0.0
2017-Sep-15 06:30N 65°51' E 013°11'0 0.0
2017-Sep-15 05:36N 65°51' E 013°11'0 0.0
2017-Sep-15 05:18N 65°51' E 013°11'0 0.0
2017-Sep-15 05:00N 65°51' E 013°11'0 0.0
2017-Sep-15 03:48N 65°51' E 013°11'  
Track history (hours):
 
Tides and Currents Weather Stations Pressure Air Temp Water Temp Dewpoint Dewpoint Depression Visibility Wind Speed Wind Dir Waves Ship Positions

Rms Voerde

Last reported at 2017-Sep-25 03:19 UTC. Time now 2017-Sep-26 07:23 UTC.
Position N 43°43' W 007°28'.

Length 90 m; draft 3.7 m.

Type: Ship. MMSI: 304010905.

Date/timePositionNaut miles runAvg speedWind from/ knotsBaromVisibWave heightAir tempDewpointWater temp
2017-Sep-25 03:19N 43°43' W 007°28'2 5.9
2017-Sep-25 03:00N 43°44' W 007°26'0 0.0
2017-Sep-25 00:07N 43°44' W 007°26'0 0.0
2017-Sep-24 21:28N 43°44' W 007°26'0 0.0
2017-Sep-24 20:52N 43°44' W 007°26'0 0.0
2017-Sep-24 20:26N 43°44' W 007°26'0 0.0
2017-Sep-24 19:59N 43°44' W 007°26'0 0.0
2017-Sep-24 19:23N 43°44' W 007°26'0 0.0
2017-Sep-24 18:59N 43°44' W 007°26'0 0.0
2017-Sep-24 18:20N 43°44' W 007°26'0 0.0
2017-Sep-24 16:35N 43°44' W 007°26'0 0.1
2017-Sep-24 16:23N 43°44' W 007°26'0 0.0
2017-Sep-24 15:56N 43°44' W 007°26'0 0.0
2017-Sep-24 10:26N 43°44' W 007°26'0 0.0
2017-Sep-24 09:47N 43°44' W 007°26'0 0.0
2017-Sep-24 09:29N 43°44' W 007°26'0 0.0
2017-Sep-24 08:56N 43°44' W 007°26'0 0.0
2017-Sep-24 08:29N 43°44' W 007°26'0 0.1
2017-Sep-24 07:53N 43°44' W 007°26'0 0.0
2017-Sep-24 07:29N 43°44' W 007°26'0 0.1
2017-Sep-24 04:04N 43°43' W 007°26'1 4.5
2017-Sep-24 03:57N 43°43' W 007°25'710.0
2017-Sep-24 03:17N 43°44' W 007°15'  
2017-Sep-21 06:48N 48°04' W 005°10'1110.8
2017-Sep-21 05:48N 48°14' W 005°16'9 9.4
2017-Sep-21 04:48N 48°23' W 005°21'19 6.1
2017-Sep-21 01:42N 48°41' W 005°11'2 7.6
2017-Sep-21 01:28N 48°42' W 005°09'4 8.2
2017-Sep-21 00:58N 48°45' W 005°04'5 9.3
2017-Sep-21 00:26N 48°48' W 004°59'77 9.4
2017-Sep-20 16:14N 49°38' W 003°29'3 8.7
2017-Sep-20 15:55N 49°40' W 003°26'4 9.2
2017-Sep-20 15:30N 49°42' W 003°21'5 9.9
2017-Sep-20 15:00N 49°46' W 003°16'1111.1
2017-Sep-20 14:00N 49°53' W 003°03'611.9
2017-Sep-20 13:30N 49°57' W 002°56'612.2
2017-Sep-20 12:59N 49°59' W 002°46'97 9.4
2017-Sep-20 02:37N 50°29' W 000°22'112.0
2017-Sep-20 02:30N 50°30' W 000°20'611.8
2017-Sep-20 02:00N 50°31' W 000°11'611.6
2017-Sep-20 01:30N 50°33' W 000°03'611.2
2017-Sep-20 01:00N 50°34' E 000°06'511.1
2017-Sep-20 00:30N 50°35' E 000°14'510.6
2017-Sep-20 00:00N 50°37' E 000°23'510.0
2017-Sep-19 23:30N 50°38' E 000°30'5 9.4
2017-Sep-19 23:00N 50°40' E 000°37'5 9.3
2017-Sep-19 22:30N 50°43' E 000°43'5 9.0
2017-Sep-19 22:00N 50°45' E 000°49'12 9.1
2017-Sep-19 20:39N 50°53' E 001°04'2 9.8
2017-Sep-19 20:30N 50°54' E 001°06'510.4
2017-Sep-19 20:00N 50°57' E 001°12'611.7
2017-Sep-19 19:30N 51°01' E 001°20'612.9
2017-Sep-19 19:00N 51°05' E 001°28'713.4
2017-Sep-19 18:30N 51°09' E 001°36'612.7
2017-Sep-19 18:00N 51°13' E 001°44'612.1
2017-Sep-19 17:31N 51°18' E 001°49'510.9
2017-Sep-19 17:00N 51°23' E 001°54'510.4
2017-Sep-19 16:30N 51°27' E 001°59'5 9.8
2017-Sep-19 16:00N 51°31' E 002°03'6 9.2
2017-Sep-19 15:20N 51°36' E 002°09'3 9.1
2017-Sep-19 15:00N 51°38' E 002°12'  
2017-Sep-17 00:55N 62°01' E 004°26'410.0
2017-Sep-17 00:29N 62°05' E 004°31'510.1
2017-Sep-17 00:00N 62°09' E 004°35'510.0
2017-Sep-16 23:30N 62°14' E 004°40'5 9.9
2017-Sep-16 23:00N 62°18' E 004°44'298 9.7
2017-Sep-15 16:25N 66°14' E 011°44'4 9.8
2017-Sep-15 15:59N 66°15' E 011°54'510.0
2017-Sep-15 15:30N 66°16' E 012°06'510.2
2017-Sep-15 15:00N 66°17' E 012°18'510.1
2017-Sep-15 14:30N 66°15' E 012°30'4 8.9
2017-Sep-15 14:00N 66°13' E 012°39'5 9.2
2017-Sep-15 13:30N 66°08' E 012°40'5 9.9
2017-Sep-15 13:00N 66°03' E 012°39'3 6.9
2017-Sep-15 12:30N 66°03' E 012°47'4 8.1
2017-Sep-15 12:00N 66°01' E 012°56'4 8.0
2017-Sep-15 11:29N 65°57' E 012°57'510.1
2017-Sep-15 11:00N 65°54' E 013°07'4 6.6
2017-Sep-15 10:27N 65°51' E 013°11'0 0.0
2017-Sep-15 10:00N 65°51' E 013°11'0 0.0
2017-Sep-15 09:30N 65°51' E 013°11'0 0.0
2017-Sep-15 09:00N 65°51' E 013°11'0 0.0
2017-Sep-15 08:30N 65°51' E 013°11'0 0.0
2017-Sep-15 08:00N 65°51' E 013°11'0 0.0
2017-Sep-15 07:27N 65°51' E 013°11'0 0.0
2017-Sep-15 07:00N 65°51' E 013°11'0 0.0
2017-Sep-15 06:30N 65°51' E 013°11'0 0.0
2017-Sep-15 05:36N 65°51' E 013°11'0 0.0
2017-Sep-15 05:18N 65°51' E 013°11'0 0.0
2017-Sep-15 05:00N 65°51' E 013°11'0 0.0
2017-Sep-15 03:48N 65°51' E 013°11'  

Dump ship's entire track history